Terminal Aerodrome Forecast
Issued by NWS

Home | Current Version | Previous Version | Text Only | Print | Product List | Glossary On
Versions: 1 2 3 4 5 6 7 8 9 10 11 12 13 14 15 16 17 18 19 20 21 22 23 24 25 26 27 28 29 30 31 32 33 34 35 36 37 38 39 40 41
504
FTUS45 KCYS 212021 AAA
TAFLAR
TAF AMD
KLAR 212021Z 2120/2218 23012KT P6SM VCTS SCT050CB BKN200
      TEMPO 2121/2124 VRB25G35KT 4SM -TSRA BKN040CB
     FM220200 13010KT P6SM BKN250=

USA.gov is the U.S. government's official web portal to all federal, state and local government web resources and services.